createdAt,value
2019-01-20T00:00:05.961Z,7.80
2019-01-20T00:01:05.923Z,8.60
2019-01-20T00:02:05.892Z,8.50
2019-01-20T00:03:05.865Z,8.50
2019-01-20T00:04:05.829Z,8.70
2019-01-20T00:05:05.788Z,8.40
2019-01-20T00:06:05.772Z,8.20
2019-01-20T00:07:05.731Z,8.20
2019-01-20T00:08:05.696Z,8.30
2019-01-20T00:09:05.658Z,9.10
2019-01-20T00:10:05.634Z,9.30
2019-01-20T00:11:05.601Z,8.70
2019-01-20T00:12:05.567Z,8.60
2019-01-20T00:13:05.527Z,9.50
2019-01-20T00:14:05.498Z,9.00
2019-01-20T00:15:05.459Z,9.50
2019-01-20T00:16:05.425Z,9.40
2019-01-20T00:17:05.394Z,8.60
2019-01-20T00:18:05.356Z,9.20
2019-01-20T00:19:05.321Z,9.40
2019-01-20T00:20:05.291Z,9.10
2019-01-20T00:21:05.253Z,10.00
2019-01-20T00:22:05.251Z,9.30
2019-01-20T00:23:05.192Z,9.30
2019-01-20T00:24:05.176Z,9.50
2019-01-20T00:25:05.139Z,8.90
2019-01-20T00:26:05.094Z,8.70
2019-01-20T00:27:05.063Z,9.00
2019-01-20T00:28:05.024Z,9.90
2019-01-20T00:29:06.758Z,8.90
2019-01-20T00:30:04.962Z,9.40
2019-01-20T00:31:04.918Z,8.90
2019-01-20T00:32:04.894Z,9.30
2019-01-20T00:33:04.855Z,9.40
2019-01-20T00:34:04.837Z,9.40
2019-01-20T00:35:04.779Z,9.00
2019-01-20T00:36:04.759Z,8.70
2019-01-20T00:37:04.720Z,9.40
2019-01-20T00:38:04.680Z,9.10
2019-01-20T00:39:04.654Z,8.60
2019-01-20T00:40:04.627Z,8.80
2019-01-20T00:41:04.578Z,9.10
2019-01-20T00:42:04.551Z,9.10
2019-01-20T00:43:04.510Z,9.00
2019-01-20T00:44:04.496Z,8.90
2019-01-20T00:45:04.450Z,9.50
2019-01-20T00:46:04.425Z,9.30
2019-01-20T00:47:04.380Z,9.60
2019-01-20T00:48:04.349Z,9.70
2019-01-20T00:49:04.325Z,8.90
2019-01-20T00:50:04.319Z,9.20
2019-01-20T00:51:04.272Z,9.50
2019-01-20T00:52:04.230Z,9.20
2019-01-20T00:53:04.187Z,9.40
2019-01-20T00:54:04.147Z,10.10
2019-01-20T00:55:04.116Z,10.00
2019-01-20T00:56:04.097Z,9.20
2019-01-20T00:57:04.056Z,9.90
2019-01-20T00:58:04.032Z,9.60
2019-01-20T00:59:03.983Z,9.30
2019-01-20T01:00:03.951Z,10.30
2019-01-20T01:01:03.911Z,11.70
2019-01-20T01:02:03.883Z,10.50
2019-01-20T01:03:03.844Z,10.50
2019-01-20T01:04:03.814Z,10.70
2019-01-20T01:05:03.787Z,10.70
2019-01-20T01:06:03.748Z,10.30
2019-01-20T01:07:03.716Z,11.40
2019-01-20T01:08:03.691Z,10.10
2019-01-20T01:09:03.648Z,10.30
2019-01-20T01:10:03.621Z,11.60
2019-01-20T01:11:03.572Z,12.00
2019-01-20T01:12:03.548Z,10.90
2019-01-20T01:13:03.505Z,10.80
2019-01-20T01:14:03.483Z,9.80
2019-01-20T01:15:03.444Z,10.20
2019-01-20T01:16:03.428Z,9.90
2019-01-20T01:17:03.374Z,9.70
2019-01-20T01:18:03.345Z,9.30
2019-01-20T01:19:03.317Z,9.70
2019-01-20T01:20:19.095Z,9.40
2019-01-20T01:21:03.243Z,9.60
2019-01-20T01:22:20.098Z,9.60
2019-01-20T01:23:03.214Z,9.30
2019-01-20T03:08:30.301Z,9.90
2019-01-20T03:09:28.649Z,9.50
2019-01-20T03:10:28.626Z,9.10
2019-01-20T03:11:28.584Z,9.00
2019-01-20T03:12:28.555Z,9.70
2019-01-20T03:13:28.520Z,9.70
2019-01-20T03:14:28.486Z,10.40
2019-01-20T03:15:29.352Z,9.50
2019-01-20T03:16:28.424Z,8.30
2019-01-20T03:17:28.381Z,8.90
2019-01-20T03:18:28.353Z,9.30
2019-01-20T03:19:28.327Z,9.80
2019-01-20T03:20:28.281Z,9.20
2019-01-20T03:21:28.255Z,9.10
2019-01-20T03:22:28.223Z,9.60
2019-01-20T03:23:28.183Z,9.10
2019-01-20T03:24:28.147Z,9.50
2019-01-20T03:25:28.124Z,8.60
2019-01-20T03:26:28.078Z,9.30
2019-01-20T03:27:28.041Z,8.80
2019-01-20T03:28:28.018Z,9.00
2019-01-20T03:29:27.977Z,9.30
2019-01-20T03:30:27.986Z,8.80
2019-01-20T03:31:27.928Z,8.80
2019-01-20T03:32:27.881Z,9.10
2019-01-20T03:33:27.838Z,9.30
2019-01-20T03:34:27.824Z,8.70
2019-01-20T03:35:27.777Z,9.10
2019-01-20T03:36:27.750Z,9.00
2019-01-20T03:37:27.707Z,8.70
2019-01-20T03:38:27.679Z,8.70
2019-01-20T03:39:27.638Z,8.90
2019-01-20T03:40:27.610Z,8.70
2019-01-20T03:41:27.571Z,8.70
2019-01-20T03:42:27.566Z,8.80
2019-01-20T03:43:27.512Z,9.50
2019-01-20T03:44:27.472Z,9.40
2019-01-20T03:45:27.438Z,9.00
2019-01-20T03:46:27.409Z,8.10
2019-01-20T03:47:27.364Z,8.80
2019-01-20T03:48:27.338Z,8.90
2019-01-20T03:49:27.306Z,8.80
2019-01-20T03:50:27.280Z,8.40
2019-01-20T03:51:27.232Z,8.30
2019-01-20T03:52:27.209Z,8.10
2019-01-20T03:53:27.167Z,9.40
2019-01-20T03:54:27.138Z,9.10
2019-01-20T03:55:27.111Z,9.10
2019-01-20T03:56:27.068Z,8.70
2019-01-20T03:57:27.033Z,8.30
2019-01-20T03:58:27.013Z,8.70
2019-01-20T03:59:26.974Z,9.20
2019-01-20T04:00:26.977Z,9.20
2019-01-20T04:01:26.891Z,8.90
2019-01-20T04:02:26.872Z,9.20
2019-01-20T04:03:26.823Z,8.80
2019-01-20T04:04:26.822Z,9.10
2019-01-20T04:05:26.758Z,8.90
2019-01-20T04:06:26.723Z,8.40
2019-01-20T04:07:26.693Z,9.10
2019-01-20T04:21:38.483Z,9.10
2019-01-20T04:22:37.396Z,9.20
2019-01-20T04:23:37.366Z,9.00
2019-01-20T04:24:37.332Z,9.20
2019-01-20T04:25:38.300Z,8.90
2019-01-20T04:26:37.293Z,8.30
2019-01-20T04:27:37.258Z,9.10
2019-01-20T04:28:37.264Z,9.30
2019-01-20T04:29:38.462Z,10.00
2019-01-20T04:30:37.148Z,8.90
2019-01-20T04:31:37.140Z,8.70
2019-01-20T04:32:37.074Z,9.40
2019-01-20T04:33:37.023Z,9.10
2019-01-20T04:34:36.990Z,8.80
2019-01-20T04:35:36.951Z,9.40
2019-01-20T04:36:36.927Z,9.30
2019-01-20T04:37:36.894Z,9.20
2019-01-20T04:38:36.852Z,9.10
2019-01-20T04:39:36.823Z,9.20
2019-01-20T04:40:36.783Z,9.00
2019-01-20T04:41:36.755Z,9.30
2019-01-20T04:42:36.743Z,8.70
2019-01-20T04:43:37.757Z,9.50
2019-01-20T04:44:36.653Z,8.80
2019-01-20T04:45:37.615Z,9.30
2019-01-20T04:46:36.574Z,8.40
2019-01-20T04:47:36.564Z,8.80
2019-01-20T04:48:36.521Z,8.60
2019-01-20T04:49:36.488Z,8.70
2019-01-20T04:50:36.435Z,8.80
2019-01-20T04:51:36.413Z,8.00
2019-01-20T04:52:36.385Z,9.30
2019-01-20T04:53:37.367Z,8.80
2019-01-20T04:54:36.307Z,9.10
2019-01-20T04:55:36.271Z,8.60
2019-01-20T04:56:36.258Z,9.20
2019-01-20T04:57:36.215Z,9.50
2019-01-20T04:58:36.172Z,8.20
2019-01-20T04:59:36.175Z,9.30
2019-01-20T05:00:36.102Z,9.10
2019-01-20T05:01:36.093Z,9.10
2019-01-20T05:02:36.037Z,9.60
2019-01-20T05:03:36.054Z,9.00
2019-01-20T05:04:35.966Z,9.80
2019-01-20T05:05:35.936Z,9.50
2019-01-20T05:06:35.899Z,8.80
2019-01-20T05:07:35.898Z,10.30
2019-01-20T05:08:35.830Z,9.60
2019-01-20T05:24:06.604Z,10.30
2019-01-20T05:25:06.597Z,10.40
2019-01-20T05:26:06.514Z,10.10
2019-01-20T05:27:06.472Z,10.70
2019-01-20T05:28:06.460Z,10.50
2019-01-20T05:29:06.411Z,10.40
2019-01-20T05:30:06.395Z,10.40
2019-01-20T05:31:06.358Z,10.30
2019-01-20T05:32:06.305Z,10.30
2019-01-20T05:33:06.280Z,10.20
2019-01-20T05:34:06.243Z,10.80
2019-01-20T05:35:06.212Z,10.20
2019-01-20T05:36:06.175Z,9.60
2019-01-20T05:37:06.141Z,10.10
2019-01-20T05:38:06.109Z,10.30
2019-01-20T05:39:06.072Z,10.30
2019-01-20T05:40:06.034Z,11.10
2019-01-20T05:41:06.013Z,10.70
2019-01-20T05:42:05.961Z,10.30
2019-01-20T05:43:05.939Z,11.00
2019-01-20T05:44:05.900Z,11.20
2019-01-20T05:45:05.872Z,11.30
2019-01-20T05:46:05.835Z,10.80
2019-01-20T05:47:06.814Z,11.10
2019-01-20T05:48:05.765Z,10.80
2019-01-20T05:49:05.731Z,10.70
2019-01-20T05:50:05.694Z,10.90
2019-01-20T05:51:05.666Z,10.90
2019-01-20T05:52:05.619Z,11.00
2019-01-20T05:53:05.593Z,10.60
2019-01-20T05:54:05.558Z,11.60
2019-01-20T05:55:05.527Z,10.80
2019-01-20T05:56:05.489Z,11.70
2019-01-20T05:57:05.465Z,10.90
2019-01-20T05:58:05.451Z,10.80
2019-01-20T05:59:05.391Z,10.60
2019-01-20T06:00:05.350Z,11.10
2019-01-20T06:01:05.326Z,11.90
2019-01-20T06:02:05.287Z,10.50
2019-01-20T06:03:05.252Z,10.90
2019-01-20T06:04:05.219Z,10.50
2019-01-20T06:05:05.187Z,10.20
2019-01-20T06:06:05.145Z,10.70
2019-01-20T06:07:05.122Z,10.20
2019-01-20T06:08:05.082Z,9.80
2019-01-20T06:09:05.045Z,10.20
2019-01-20T06:10:05.015Z,9.90
2019-01-20T06:11:04.977Z,10.20
2019-01-20T06:12:05.033Z,10.40
2019-01-20T06:13:04.921Z,9.90
2019-01-20T06:14:04.873Z,9.40
2019-01-20T06:15:04.846Z,9.60
2019-01-20T06:16:04.826Z,10.10
2019-01-20T06:17:04.772Z,10.00
2019-01-20T06:18:04.740Z,9.40
2019-01-20T06:19:04.721Z,10.50
2019-01-20T06:20:04.672Z,9.60
2019-01-20T06:21:04.660Z,9.90
2019-01-20T06:22:04.593Z,9.40
2019-01-20T06:23:04.570Z,9.30
2019-01-20T06:24:04.532Z,8.70
2019-01-20T06:25:04.504Z,9.20
2019-01-20T06:26:04.462Z,10.40
2019-01-20T06:27:04.430Z,9.90
2019-01-20T06:28:04.392Z,11.00
2019-01-20T06:29:04.366Z,10.60
2019-01-20T06:30:04.323Z,10.30
2019-01-20T06:31:04.329Z,10.90
2019-01-20T06:32:04.256Z,10.60
2019-01-20T06:33:05.232Z,10.70
2019-01-20T06:34:04.191Z,9.70
2019-01-20T06:35:04.161Z,9.60
2019-01-20T06:36:04.127Z,10.30
2019-01-20T06:37:04.096Z,10.30
2019-01-20T06:38:04.059Z,10.00
2019-01-20T06:39:04.025Z,10.90
2019-01-20T06:40:05.986Z,10.50
2019-01-20T06:41:03.955Z,10.80
2019-01-20T06:42:03.911Z,11.00
2019-01-20T06:43:03.885Z,10.00
2019-01-20T06:44:03.853Z,10.30
2019-01-20T06:45:03.809Z,10.60
2019-01-20T06:46:03.784Z,10.60
2019-01-20T06:47:03.744Z,10.50
2019-01-20T06:48:03.716Z,9.50
2019-01-20T06:49:03.695Z,10.40
2019-01-20T06:50:03.646Z,9.90
2019-01-20T06:51:03.604Z,10.40
2019-01-20T06:52:03.571Z,10.10
2019-01-20T06:53:03.538Z,9.60
2019-01-20T06:54:03.510Z,10.60
2019-01-20T06:55:03.469Z,10.00
2019-01-20T06:56:03.438Z,9.50
2019-01-20T06:57:03.397Z,9.10
2019-01-20T06:58:03.424Z,10.30
2019-01-20T06:59:03.335Z,10.40
2019-01-20T07:00:03.343Z,10.00
2019-01-20T07:01:03.264Z,10.40
2019-01-20T07:02:03.250Z,10.60
2019-01-20T07:03:03.197Z,10.80
2019-01-20T07:04:03.267Z,10.80
2019-01-20T07:05:03.129Z,10.90
2019-01-20T07:06:03.176Z,10.70
2019-01-20T07:07:03.053Z,10.20
2019-01-20T07:08:03.087Z,10.50
2019-01-20T07:09:02.987Z,9.90
2019-01-20T07:10:02.997Z,10.40
2019-01-20T07:11:02.918Z,10.10
2019-01-20T07:12:02.906Z,9.30
2019-01-20T07:13:09.176Z,10.70
2019-01-20T07:14:02.814Z,10.30
2019-01-20T07:15:02.828Z,10.60
2019-01-20T07:16:02.748Z,9.90
2019-01-20T07:17:02.722Z,9.70
2019-01-20T07:18:02.762Z,9.70
2019-01-20T07:19:02.652Z,10.80
2019-01-20T07:20:02.657Z,10.80
2019-01-20T07:21:02.574Z,10.10
2019-01-20T07:22:02.567Z,9.90
2019-01-20T07:23:02.516Z,10.30
2019-01-20T07:24:02.583Z,10.40
2019-01-20T07:25:02.458Z,10.50
2019-01-20T07:26:02.523Z,9.90
2019-01-20T07:27:02.371Z,9.60
2019-01-20T07:28:02.402Z,10.40
2019-01-20T07:29:02.298Z,10.00
2019-01-20T07:30:02.315Z,9.80
2019-01-20T07:31:02.239Z,10.30
2019-01-20T07:32:02.223Z,9.50
2019-01-20T07:33:02.163Z,10.20
2019-01-20T07:34:02.239Z,10.20
2019-01-20T07:35:02.096Z,11.30
2019-01-20T07:36:02.150Z,10.50
2019-01-20T07:37:02.030Z,10.50
2019-01-20T07:38:02.061Z,10.50
2019-01-20T07:39:01.950Z,10.90
2019-01-20T07:40:01.977Z,10.50
2019-01-20T07:41:01.906Z,10.40
2019-01-20T07:42:01.883Z,9.80
2019-01-20T07:43:01.823Z,10.40
2019-01-20T07:44:02.819Z,10.50
2019-01-20T07:45:01.747Z,10.70
2019-01-20T07:46:01.811Z,10.40
2019-01-20T07:47:01.724Z,10.00
2019-01-20T07:48:01.761Z,10.60
2019-01-20T07:49:01.614Z,9.80
2019-01-20T07:50:01.631Z,10.80
2019-01-20T07:51:01.541Z,9.70
2019-01-20T07:52:01.544Z,10.30
2019-01-20T07:53:01.482Z,10.60
2019-01-20T07:54:01.619Z,10.10
2019-01-20T07:55:01.423Z,10.30
2019-01-20T07:56:01.471Z,10.20
2019-01-20T07:57:01.336Z,11.20
2019-01-20T07:58:01.313Z,10.60
2019-01-20T07:59:01.721Z,10.90
2019-01-20T08:00:01.233Z,11.30
2019-01-20T08:01:01.295Z,11.30
2019-01-20T08:02:01.163Z,11.70
2019-01-20T08:03:01.207Z,12.00
2019-01-20T08:04:01.100Z,11.50
2019-01-20T08:05:01.062Z,11.50
2019-01-20T08:06:01.038Z,11.20
2019-01-20T08:07:00.997Z,10.50
2019-01-20T08:08:00.955Z,11.80
2019-01-20T08:09:00.933Z,11.50
2019-01-20T08:10:00.892Z,10.50
2019-01-20T08:11:00.948Z,11.20
2019-01-20T08:12:00.819Z,11.50
2019-01-20T08:13:00.812Z,11.00
2019-01-20T08:14:00.750Z,11.40
2019-01-20T08:15:00.772Z,11.20
2019-01-20T08:16:00.680Z,10.80
2019-01-20T08:17:00.642Z,11.90
2019-01-20T08:18:00.612Z,12.90
2019-01-20T08:19:00.578Z,12.50
2019-01-20T08:20:00.540Z,12.80
2019-01-20T08:21:00.520Z,13.40
2019-01-20T08:22:00.477Z,13.30
2019-01-20T08:23:00.454Z,13.10
2019-01-20T08:24:00.411Z,13.10
2019-01-20T08:25:00.367Z,13.40
2019-01-20T08:26:00.338Z,13.10
2019-01-20T08:27:00.303Z,13.10
2019-01-20T08:28:00.273Z,13.90
2019-01-20T08:29:00.230Z,14.10
2019-01-20T08:30:00.214Z,14.30
2019-01-20T08:31:00.170Z,14.20
2019-01-20T08:32:00.184Z,13.90
2019-01-20T08:33:00.096Z,15.20
2019-01-20T08:34:00.075Z,14.10
2019-01-20T08:35:00.256Z,14.90
2019-01-20T08:36:00.109Z,15.50
2019-01-20T08:37:00.005Z,14.40
2019-01-20T08:37:59.917Z,16.60
2019-01-20T08:38:59.917Z,16.50
2019-01-20T08:39:59.854Z,14.70
2019-01-20T08:40:59.938Z,14.70
2019-01-20T08:41:59.782Z,14.90
2019-01-20T08:42:59.842Z,15.00
2019-01-20T08:43:59.713Z,14.50
2019-01-20T08:45:00.776Z,14.90
2019-01-20T08:45:59.649Z,16.00
2019-01-20T08:46:59.671Z,14.90
2019-01-20T08:47:59.574Z,15.20
2019-01-20T08:48:59.546Z,13.40
2019-01-20T08:49:59.509Z,12.70
2019-01-20T08:50:59.491Z,12.40
2019-01-20T08:51:59.441Z,11.50
2019-01-20T08:52:59.498Z,11.70
2019-01-20T08:53:59.371Z,11.80
2019-01-20T08:54:59.410Z,11.30
2019-01-20T08:55:59.301Z,10.50
2019-01-20T08:56:59.327Z,11.60
2019-01-20T08:57:59.229Z,11.60
2019-01-20T08:58:59.232Z,10.60
2019-01-20T08:59:59.172Z,10.40
2019-01-20T09:00:59.144Z,9.70
2019-01-20T09:01:59.101Z,10.70
2019-01-20T09:02:59.173Z,11.40
2019-01-20T09:03:59.024Z,10.20
2019-01-20T09:04:58.990Z,10.70
2019-01-20T09:05:58.963Z,9.20
2019-01-20T09:06:58.921Z,9.70
2019-01-20T09:07:58.894Z,9.30
2019-01-20T09:08:58.967Z,9.40
2019-01-20T09:09:58.823Z,8.70
2019-01-20T09:10:58.877Z,9.50
2019-01-20T09:11:58.777Z,9.50
2019-01-20T09:12:58.793Z,9.30
2019-01-20T09:13:58.733Z,9.00
2019-01-20T09:14:58.700Z,8.60
2019-01-20T09:15:58.624Z,10.00
2019-01-20T09:16:58.613Z,9.50
2019-01-20T09:17:58.542Z,9.00
2019-01-20T09:18:58.640Z,9.10
2019-01-20T09:19:58.526Z,9.50
2019-01-20T09:20:58.540Z,8.80
2019-01-20T09:21:58.406Z,9.30
2019-01-20T09:22:58.377Z,8.80
2019-01-20T09:23:58.365Z,9.30
2019-01-20T09:24:58.300Z,10.00
2019-01-20T09:25:58.265Z,10.00
2019-01-20T09:26:58.243Z,9.50
2019-01-20T09:27:58.214Z,9.80
2019-01-20T09:28:58.170Z,10.00
2019-01-20T09:29:58.129Z,11.50
2019-01-20T09:30:58.112Z,11.20
2019-01-20T09:31:58.071Z,9.70
2019-01-20T09:32:58.034Z,9.80
2019-01-20T09:33:58.002Z,10.20
2019-01-20T09:34:57.960Z,9.10
2019-01-20T09:35:57.940Z,9.30
2019-01-20T09:36:57.899Z,10.00
2019-01-20T09:37:57.868Z,10.30
2019-01-20T09:38:57.835Z,10.50
2019-01-20T09:39:57.854Z,10.10
2019-01-20T09:40:57.761Z,9.60
2019-01-20T09:41:57.871Z,9.90
2019-01-20T09:42:57.695Z,9.80
2019-01-20T09:43:57.786Z,9.30
2019-01-20T09:44:57.643Z,9.50
2019-01-20T09:45:57.714Z,9.70
2019-01-20T09:46:57.553Z,10.30
2019-01-20T09:47:57.611Z,10.40
2019-01-20T09:48:57.505Z,9.40
2019-01-20T09:49:57.518Z,9.30
2019-01-20T09:50:57.490Z,9.30
2019-01-20T09:51:57.413Z,10.00
2019-01-20T09:52:57.363Z,8.90
2019-01-20T09:53:57.332Z,9.40
2019-01-20T09:54:57.341Z,9.70
2019-01-20T09:55:57.252Z,9.80
2019-01-20T09:56:57.368Z,9.90
2019-01-20T09:57:57.188Z,9.70
2019-01-20T09:58:57.267Z,9.50
2019-01-20T09:59:57.543Z,8.80
2019-01-20T10:01:04.042Z,8.60
2019-01-20T10:01:57.054Z,8.10
2019-01-20T10:02:59.155Z,8.80
2019-01-20T10:03:56.982Z,8.60
2019-01-20T10:05:19.031Z,8.70
2019-01-20T10:05:56.937Z,9.00
2019-01-20T10:06:57.060Z,8.50
2019-01-20T10:07:56.846Z,9.50
2019-01-20T10:08:56.924Z,9.10
2019-01-20T10:09:56.783Z,8.30
2019-01-20T10:10:56.828Z,7.30
2019-01-20T10:11:56.701Z,8.00
2019-01-20T10:12:56.744Z,8.60
2019-01-20T10:13:56.632Z,8.90
2019-01-20T10:14:56.763Z,8.00
2019-01-20T10:15:56.585Z,7.90
2019-01-20T10:16:56.532Z,8.20
2019-01-20T10:17:56.506Z,7.90
2019-01-20T10:18:56.580Z,8.30
2019-01-20T10:19:56.432Z,8.70
2019-01-20T10:20:56.405Z,7.20
2019-01-20T10:21:56.379Z,6.50
2019-01-20T10:22:56.350Z,7.40
2019-01-20T10:23:56.312Z,7.60
2019-01-20T10:24:56.261Z,8.40
2019-01-20T10:25:56.243Z,7.40
2019-01-20T10:26:56.273Z,7.20
2019-01-20T10:27:56.157Z,7.50
2019-01-20T10:28:56.238Z,7.20
2019-01-20T10:29:56.091Z,7.60
2019-01-20T10:30:56.149Z,7.70
2019-01-20T10:31:56.028Z,7.00
2019-01-20T10:32:56.008Z,7.00
2019-01-20T10:33:55.957Z,6.90
2019-01-20T10:34:55.915Z,7.20
2019-01-20T10:35:55.924Z,7.70
2019-01-20T10:36:55.932Z,7.90
2019-01-20T10:37:55.814Z,7.70
2019-01-20T10:38:55.792Z,7.70
2019-01-20T10:39:55.829Z,7.90
2019-01-20T10:40:55.766Z,7.30
2019-01-20T10:41:55.704Z,7.50
2019-01-20T10:42:55.757Z,7.80
2019-01-20T10:44:02.020Z,7.90
2019-01-20T10:44:55.749Z,7.40
2019-01-20T10:45:55.550Z,8.00
2019-01-20T10:46:55.519Z,7.30
2019-01-20T10:47:55.493Z,7.40
2019-01-20T10:48:55.467Z,7.40
2019-01-20T10:49:55.417Z,6.90
2019-01-20T10:50:55.464Z,8.60
2019-01-20T10:51:55.347Z,7.70
2019-01-20T10:52:55.312Z,7.60
2019-01-20T10:53:55.285Z,7.30
2019-01-20T10:54:55.248Z,7.70
2019-01-20T10:55:55.294Z,7.20
2019-01-20T10:56:55.178Z,7.60
2019-01-20T10:57:55.198Z,7.60
2019-01-20T10:58:55.112Z,7.20
2019-01-20T10:59:55.188Z,7.20
2019-01-20T11:00:55.045Z,6.90
2019-01-20T11:01:55.039Z,7.50
2019-01-20T11:02:54.975Z,7.30
2019-01-20T11:03:56.995Z,7.30
2019-01-20T11:04:57.515Z,7.30
2019-01-20T11:05:55.991Z,7.40
2019-01-20T11:06:54.845Z,7.70
2019-01-20T11:07:54.870Z,7.10
2019-01-20T11:08:54.778Z,7.60
2019-01-20T11:09:54.781Z,7.70
2019-01-20T11:10:54.723Z,6.60
2019-01-20T11:11:54.788Z,7.10
2019-01-20T11:12:54.641Z,7.00
2019-01-20T11:13:54.610Z,7.20
2019-01-20T11:14:54.573Z,7.30
2019-01-20T11:15:54.541Z,7.20
2019-01-20T11:16:54.509Z,7.50
2019-01-20T11:17:54.478Z,8.00
2019-01-20T11:18:54.500Z,7.30
2019-01-20T11:19:54.408Z,7.40
2019-01-20T11:20:54.377Z,7.20
2019-01-20T11:21:54.345Z,7.10
2019-01-20T11:22:54.678Z,6.70
2019-01-20T11:23:54.268Z,7.60
2019-01-20T11:24:54.248Z,6.80
2019-01-20T11:25:54.204Z,7.70
2019-01-20T11:26:54.190Z,7.40
2019-01-20T11:27:54.145Z,7.10
2019-01-20T11:28:54.102Z,7.10
2019-01-20T11:29:54.077Z,6.50
2019-01-20T11:30:54.099Z,6.70
2019-01-20T11:31:54.007Z,6.60
2019-01-20T11:32:54.012Z,6.70
2019-01-20T11:33:53.944Z,6.90
2019-01-20T11:34:53.906Z,7.60
2019-01-20T11:35:53.871Z,7.90
2019-01-20T11:36:53.837Z,7.30
2019-01-20T11:37:53.808Z,7.50
2019-01-20T11:38:53.854Z,6.70
2019-01-20T11:39:53.734Z,6.20
2019-01-20T11:40:53.720Z,7.00
2019-01-20T11:41:53.730Z,7.00
2019-01-20T11:42:53.642Z,6.90
2019-01-20T11:43:53.643Z,6.60
2019-01-20T11:44:53.577Z,7.10
2019-01-20T11:45:53.564Z,6.40
2019-01-20T11:46:53.508Z,6.70
2019-01-20T11:47:53.566Z,6.70
2019-01-20T11:48:53.442Z,6.40
2019-01-20T11:49:53.472Z,6.60
2019-01-20T11:50:53.378Z,6.90
2019-01-20T11:51:53.421Z,7.10
2019-01-20T11:52:53.349Z,7.10
2019-01-20T11:53:53.296Z,6.80
2019-01-20T11:54:53.251Z,7.10
2019-01-20T11:55:53.527Z,7.20
2019-01-20T11:56:53.189Z,7.10
2019-01-20T11:57:53.239Z,6.40
2019-01-20T11:58:53.112Z,7.70
2019-01-20T11:59:53.145Z,8.40
2019-01-20T12:00:53.054Z,7.70
2019-01-20T12:01:54.076Z,7.10
2019-01-20T12:02:52.995Z,7.00
2019-01-20T12:03:53.073Z,7.20
2019-01-20T12:04:52.916Z,6.40
2019-01-20T12:05:53.015Z,6.90
2019-01-20T12:06:52.861Z,6.80
2019-01-20T12:07:54.254Z,7.00
2019-01-20T12:08:52.782Z,6.00
2019-01-20T12:09:52.780Z,6.70
2019-01-20T12:10:52.723Z,5.90
2019-01-20T12:11:52.716Z,6.30
2019-01-20T12:12:52.653Z,6.60
2019-01-20T12:13:52.621Z,6.50
2019-01-20T12:14:52.594Z,6.10
2019-01-20T12:15:52.560Z,5.90
2019-01-20T12:16:52.538Z,6.20
2019-01-20T12:17:52.485Z,6.30
2019-01-20T12:18:52.483Z,6.10
2019-01-20T12:19:52.477Z,5.70
2019-01-20T12:20:52.490Z,5.80
2019-01-20T12:21:52.353Z,6.50
2019-01-20T12:22:52.397Z,6.10
2019-01-20T12:23:52.297Z,6.10
2019-01-20T12:24:52.264Z,6.40
2019-01-20T12:25:52.215Z,6.90
2019-01-20T12:26:52.191Z,6.70
2019-01-20T12:27:52.164Z,6.40
2019-01-20T12:28:52.133Z,6.30
2019-01-20T12:29:52.193Z,6.00
2019-01-20T12:30:52.091Z,6.30
2019-01-20T12:31:52.048Z,6.00
2019-01-20T12:32:52.002Z,6.70
2019-01-20T12:33:51.977Z,6.20
2019-01-20T12:34:51.927Z,6.50
2019-01-20T12:35:51.907Z,6.10
2019-01-20T12:36:51.877Z,6.30
2019-01-20T12:37:51.835Z,5.60
2019-01-20T12:38:51.816Z,6.00
2019-01-20T12:39:51.810Z,5.80
2019-01-20T12:40:51.739Z,6.30
2019-01-20T12:41:51.698Z,6.00
2019-01-20T12:42:51.671Z,5.80
2019-01-20T12:43:51.631Z,5.80
2019-01-20T12:44:51.628Z,6.40
2019-01-20T12:45:51.624Z,6.20
2019-01-20T12:46:51.558Z,5.70
2019-01-20T12:47:51.497Z,6.30
2019-01-20T12:48:51.530Z,5.80
2019-01-20T12:49:51.451Z,5.50
2019-01-20T12:50:51.408Z,6.50
2019-01-20T12:51:51.386Z,5.30
2019-01-20T12:52:51.353Z,6.20
2019-01-20T12:53:51.319Z,5.40
2019-01-20T12:54:51.282Z,5.40
2019-01-20T12:55:51.249Z,5.40
2019-01-20T12:56:51.238Z,5.60
2019-01-20T12:57:51.164Z,5.20
2019-01-20T12:58:51.153Z,5.40
2019-01-20T12:59:51.122Z,5.60
2019-01-20T13:00:51.096Z,5.40
2019-01-20T13:01:51.043Z,5.60
2019-01-20T13:02:51.039Z,5.60
2019-01-20T13:03:50.995Z,4.90
2019-01-20T13:04:50.949Z,5.70
2019-01-20T13:05:50.920Z,4.90
2019-01-20T13:06:50.873Z,5.30
2019-01-20T13:07:50.866Z,5.50
2019-01-20T13:08:50.916Z,5.60
2019-01-20T13:09:50.792Z,5.80
2019-01-20T13:10:50.753Z,5.50
2019-01-20T13:11:50.723Z,5.20
2019-01-20T13:12:50.691Z,5.40
2019-01-20T13:13:50.672Z,5.10
2019-01-20T13:14:50.625Z,5.30
2019-01-20T13:15:50.591Z,5.80
2019-01-20T13:16:50.560Z,5.20
2019-01-20T13:17:50.527Z,5.20
2019-01-20T13:18:50.516Z,5.60
2019-01-20T13:19:50.471Z,5.30
2019-01-20T13:20:50.440Z,4.80
2019-01-20T13:21:50.408Z,5.10
2019-01-20T13:22:50.378Z,4.40
2019-01-20T13:23:50.353Z,5.40
2019-01-20T13:24:50.329Z,5.30
2019-01-20T13:25:50.261Z,5.40
2019-01-20T13:26:50.238Z,5.50
2019-01-20T13:27:50.191Z,4.90
2019-01-20T13:28:50.172Z,5.70
2019-01-20T13:29:50.151Z,6.40
2019-01-20T13:30:50.178Z,5.30
2019-01-20T13:31:52.164Z,5.00
2019-01-20T13:32:50.061Z,4.90
2019-01-20T13:33:51.139Z,4.80
2019-01-20T13:34:49.975Z,5.70
2019-01-20T13:35:50.055Z,5.30
2019-01-20T13:36:49.909Z,5.40
2019-01-20T13:37:51.034Z,5.60
2019-01-20T13:38:49.833Z,5.50
2019-01-20T13:39:49.859Z,4.80
2019-01-20T13:40:49.777Z,4.90
2019-01-20T13:41:49.856Z,6.10
2019-01-20T13:42:49.703Z,5.40
2019-01-20T13:43:51.732Z,4.70
2019-01-20T13:44:49.662Z,5.70
2019-01-20T13:46:04.554Z,7.50
2019-01-20T13:46:49.583Z,5.80
2019-01-20T13:47:50.668Z,6.10
2019-01-20T13:48:49.525Z,5.70
2019-01-20T13:49:49.533Z,5.20
2019-01-20T13:50:49.468Z,4.70
2019-01-20T13:51:50.461Z,4.90
2019-01-20T13:52:49.388Z,5.10
2019-01-20T13:53:50.482Z,4.70
2019-01-20T13:54:49.317Z,5.20
2019-01-20T13:55:49.370Z,4.90
2019-01-20T13:56:49.268Z,5.80
2019-01-20T13:57:51.328Z,5.40
2019-01-20T13:58:49.189Z,5.30
2019-01-20T14:00:05.063Z,5.60
2019-01-20T14:00:49.753Z,5.00
2019-01-20T14:01:56.121Z,6.00
2019-01-20T14:02:49.063Z,5.80
2019-01-20T14:03:51.244Z,5.50
2019-01-20T14:04:49.013Z,5.60
2019-01-20T14:05:49.066Z,5.30
2019-01-20T14:06:48.933Z,4.60
2019-01-20T14:07:55.593Z,4.60
2019-01-20T14:08:48.890Z,5.20
2019-01-20T14:09:48.943Z,5.90
2019-01-20T14:10:48.810Z,5.00
2019-01-20T14:11:49.890Z,4.90
2019-01-20T14:12:48.799Z,5.80
2019-01-20T14:13:48.773Z,5.30
2019-01-20T14:14:53.898Z,5.10
2019-01-20T14:15:50.801Z,5.50
2019-01-20T14:16:48.617Z,5.00
2019-01-20T14:17:50.636Z,5.00
2019-01-20T14:18:48.544Z,7.00
2019-01-20T14:19:49.664Z,5.30
2019-01-20T14:20:48.489Z,5.20
2019-01-20T14:21:55.086Z,5.60
2019-01-20T14:22:48.422Z,4.90
2019-01-20T14:24:14.149Z,6.50
2019-01-20T14:24:48.404Z,5.50
2019-01-20T14:26:03.090Z,5.60
2019-01-20T14:26:48.311Z,4.60
2019-01-20T14:28:03.171Z,5.20
2019-01-20T14:28:48.314Z,5.30
2019-01-20T14:29:48.292Z,5.20
2019-01-20T14:30:48.184Z,5.10
2019-01-20T14:31:50.277Z,5.20
2019-01-20T14:32:48.124Z,5.30
2019-01-20T14:34:03.076Z,4.70
2019-01-20T14:34:48.122Z,5.70
2019-01-20T14:35:48.109Z,5.30
2019-01-20T14:36:47.976Z,5.80
2019-01-20T14:37:49.997Z,5.30
2019-01-20T14:38:47.944Z,4.80
2019-01-20T14:39:48.967Z,5.40
2019-01-20T14:40:47.863Z,4.70
2019-01-20T14:41:49.001Z,5.60
2019-01-20T14:42:47.784Z,4.60
2019-01-20T14:44:17.626Z,5.80
2019-01-20T14:44:47.713Z,4.80
2019-01-20T14:45:47.702Z,5.00
2019-01-20T14:47:10.708Z,4.30
2019-01-20T14:47:47.640Z,4.00
2019-01-20T14:48:47.614Z,4.00
2019-01-20T14:49:56.555Z,4.00
2019-01-20T14:50:47.525Z,3.60
2019-01-20T14:51:48.603Z,5.50
2019-01-20T14:52:47.448Z,5.30
2019-01-20T14:53:55.051Z,5.70
2019-01-20T14:54:47.413Z,4.90
2019-01-20T14:55:49.442Z,4.60
2019-01-20T14:56:47.333Z,4.50
2019-01-20T14:57:47.408Z,4.80
2019-01-20T14:58:47.268Z,5.90
2019-01-20T15:00:08.249Z,5.20
2019-01-20T15:00:47.222Z,5.20
2019-01-20T15:01:48.253Z,5.20
2019-01-20T15:02:47.152Z,5.20
2019-01-20T15:03:49.206Z,4.90
2019-01-20T15:04:47.095Z,5.80
2019-01-20T15:37:43.974Z,7.80
2019-01-20T15:52:51.222Z,5.50
2019-01-20T15:53:51.259Z,6.10
2019-01-20T15:54:51.141Z,6.90
2019-01-20T15:55:51.106Z,6.40
2019-01-20T15:56:51.078Z,6.00
2019-01-20T15:57:51.033Z,6.50
2019-01-20T15:58:51.013Z,6.70
2019-01-20T15:59:50.970Z,6.40
2019-01-20T16:00:50.944Z,6.00
2019-01-20T16:01:50.910Z,6.50
2019-01-20T16:02:50.876Z,6.60
2019-01-20T16:03:50.847Z,6.40
2019-01-20T16:04:50.822Z,7.10
2019-01-20T16:05:50.839Z,6.10
2019-01-20T16:06:50.763Z,6.70
2019-01-20T16:07:50.721Z,6.70
2019-01-20T16:08:50.691Z,6.90